Aviation Digital Data Service (ADDS)

Output produced by TAFs form (1007 UTC 30 July 2015)
found at http://aviationweather.gov/adds/tafs/
 
KTUS 300520Z 3006/3106 14007KT P6SM SCT070 BKN150 BKN250 
     FM301900 30006KT P6SM SCT080 SCT150 SCT200 
     FM302200 28009KT P6SM VCSH SCT080 BKN200 
     FM310300 16005KT P6SM FEW080 BKN150 BKN200